sensor_id;sensor_type;location;lat;lon;timestamp;P1;durP1;ratioP1;P2;durP2;ratioP2
67278;SDS011;54193;53.746;10.058;2022-07-29T00:01:52;5.68;;;2.42;;
67278;SDS011;54193;53.746;10.058;2022-07-29T00:04:40;6.80;;;2.70;;
67278;SDS011;54193;53.746;10.058;2022-07-29T00:07:25;5.77;;;2.20;;
67278;SDS011;54193;53.746;10.058;2022-07-29T00:10:11;5.72;;;2.20;;
67278;SDS011;54193;53.746;10.058;2022-07-29T00:12:58;5.00;;;2.38;;
67278;SDS011;54193;53.746;10.058;2022-07-29T00:15:44;7.18;;;2.63;;
67278;SDS011;54193;53.746;10.058;2022-07-29T00:18:29;6.95;;;2.60;;
67278;SDS011;54193;53.746;10.058;2022-07-29T00:21:16;5.50;;;2.50;;
67278;SDS011;54193;53.746;10.058;2022-07-29T00:24:02;7.03;;;2.65;;
67278;SDS011;54193;53.746;10.058;2022-07-29T00:26:48;8.40;;;2.67;;
67278;SDS011;54193;53.746;10.058;2022-07-29T00:29:33;6.63;;;2.58;;
67278;SDS011;54193;53.746;10.058;2022-07-29T00:32:19;6.00;;;2.78;;
67278;SDS011;54193;53.746;10.058;2022-07-29T00:35:05;4.87;;;2.50;;
67278;SDS011;54193;53.746;10.058;2022-07-29T00:38:11;7.28;;;2.63;;
67278;SDS011;54193;53.746;10.058;2022-07-29T00:41:00;6.68;;;2.65;;
67278;SDS011;54193;53.746;10.058;2022-07-29T00:43:45;6.28;;;2.83;;
67278;SDS011;54193;53.746;10.058;2022-07-29T00:46:31;5.45;;;2.70;;
67278;SDS011;54193;53.746;10.058;2022-07-29T00:49:17;7.97;;;2.97;;
67278;SDS011;54193;53.746;10.058;2022-07-29T00:52:03;8.77;;;3.28;;
67278;SDS011;54193;53.746;10.058;2022-07-29T00:54:49;7.95;;;3.40;;
67278;SDS011;54193;53.746;10.058;2022-07-29T00:57:35;6.57;;;3.08;;
67278;SDS011;54193;53.746;10.058;2022-07-29T01:00:25;6.75;;;3.10;;
67278;SDS011;54193;53.746;10.058;2022-07-29T01:03:11;7.20;;;3.20;;
67278;SDS011;54193;53.746;10.058;2022-07-29T01:05:57;8.45;;;3.35;;
67278;SDS011;54193;53.746;10.058;2022-07-29T01:08:45;9.15;;;3.55;;
67278;SDS011;54193;53.746;10.058;2022-07-29T01:11:32;8.02;;;3.72;;
67278;SDS011;54193;53.746;10.058;2022-07-29T01:14:19;9.55;;;4.00;;
67278;SDS011;54193;53.746;10.058;2022-07-29T01:17:09;9.67;;;4.20;;
67278;SDS011;54193;53.746;10.058;2022-07-29T01:25:54;9.02;;;3.88;;
67278;SDS011;54193;53.746;10.058;2022-07-29T01:32:22;7.73;;;4.10;;
67278;SDS011;54193;53.746;10.058;2022-07-29T01:38:22;8.73;;;4.22;;
67278;SDS011;54193;53.746;10.058;2022-07-29T01:41:15;8.50;;;4.30;;
67278;SDS011;54193;53.746;10.058;2022-07-29T01:44:09;10.82;;;4.53;;
67278;SDS011;54193;53.746;10.058;2022-07-29T01:46:58;9.97;;;4.30;;
67278;SDS011;54193;53.746;10.058;2022-07-29T01:49:51;8.75;;;4.30;;
67278;SDS011;54193;53.746;10.058;2022-07-29T01:52:45;8.38;;;4.00;;
67278;SDS011;54193;53.746;10.058;2022-07-29T01:55:42;11.00;;;4.40;;
67278;SDS011;54193;53.746;10.058;2022-07-29T01:58:31;11.25;;;4.25;;
67278;SDS011;54193;53.746;10.058;2022-07-29T02:01:18;7.57;;;3.97;;
67278;SDS011;54193;53.746;10.058;2022-07-29T02:04:06;7.75;;;3.90;;
67278;SDS011;54193;53.746;10.058;2022-07-29T02:06:56;9.65;;;4.20;;
67278;SDS011;54193;53.746;10.058;2022-07-29T02:09:44;7.78;;;3.78;;
67278;SDS011;54193;53.746;10.058;2022-07-29T02:12:33;8.85;;;4.20;;
67278;SDS011;54193;53.746;10.058;2022-07-29T02:15:21;8.80;;;4.00;;
67278;SDS011;54193;53.746;10.058;2022-07-29T02:18:11;7.88;;;3.67;;
67278;SDS011;54193;53.746;10.058;2022-07-29T02:21:00;9.95;;;4.10;;
67278;SDS011;54193;53.746;10.058;2022-07-29T02:23:46;9.32;;;4.32;;
67278;SDS011;54193;53.746;10.058;2022-07-29T02:26:35;9.80;;;4.20;;
67278;SDS011;54193;53.746;10.058;2022-07-29T02:29:22;8.07;;;3.50;;
67278;SDS011;54193;53.746;10.058;2022-07-29T02:32:10;8.15;;;3.80;;
67278;SDS011;54193;53.746;10.058;2022-07-29T02:34:58;8.52;;;3.95;;
67278;SDS011;54193;53.746;10.058;2022-07-29T02:37:45;7.45;;;3.80;;
67278;SDS011;54193;53.746;10.058;2022-07-29T02:40:52;8.55;;;3.78;;
67278;SDS011;54193;53.746;10.058;2022-07-29T02:43:40;8.17;;;3.83;;
67278;SDS011;54193;53.746;10.058;2022-07-29T02:46:30;10.15;;;4.00;;
67278;SDS011;54193;53.746;10.058;2022-07-29T02:49:21;7.63;;;3.78;;
67278;SDS011;54193;53.746;10.058;2022-07-29T02:54:58;9.25;;;3.80;;
67278;SDS011;54193;53.746;10.058;2022-07-29T03:01:01;9.93;;;3.95;;
67278;SDS011;54193;53.746;10.058;2022-07-29T03:03:56;10.07;;;4.05;;
67278;SDS011;54193;53.746;10.058;2022-07-29T03:06:46;9.40;;;4.00;;
67278;SDS011;54193;53.746;10.058;2022-07-29T03:09:33;7.53;;;3.80;;
67278;SDS011;54193;53.746;10.058;2022-07-29T03:12:19;10.67;;;3.80;;
67278;SDS011;54193;53.746;10.058;2022-07-29T03:15:05;8.65;;;3.75;;
67278;SDS011;54193;53.746;10.058;2022-07-29T03:17:53;8.48;;;4.38;;
67278;SDS011;54193;53.746;10.058;2022-07-29T03:20:40;8.65;;;4.00;;
67278;SDS011;54193;53.746;10.058;2022-07-29T03:23:27;7.65;;;3.78;;
67278;SDS011;54193;53.746;10.058;2022-07-29T03:26:13;8.50;;;3.80;;
67278;SDS011;54193;53.746;10.058;2022-07-29T03:28:59;9.98;;;4.13;;
67278;SDS011;54193;53.746;10.058;2022-07-29T03:31:45;8.57;;;4.18;;
67278;SDS011;54193;53.746;10.058;2022-07-29T03:34:30;14.25;;;4.28;;
67278;SDS011;54193;53.746;10.058;2022-07-29T03:37:16;11.38;;;4.10;;
67278;SDS011;54193;53.746;10.058;2022-07-29T03:40:03;9.03;;;4.03;;
67278;SDS011;54193;53.746;10.058;2022-07-29T03:42:52;7.70;;;3.88;;
67278;SDS011;54193;53.746;10.058;2022-07-29T03:45:42;8.35;;;4.13;;
67278;SDS011;54193;53.746;10.058;2022-07-29T03:48:29;11.50;;;4.20;;
67278;SDS011;54193;53.746;10.058;2022-07-29T03:51:20;8.10;;;4.30;;
67278;SDS011;54193;53.746;10.058;2022-07-29T03:54:06;8.40;;;3.70;;
67278;SDS011;54193;53.746;10.058;2022-07-29T03:56:52;7.60;;;3.70;;
67278;SDS011;54193;53.746;10.058;2022-07-29T03:59:39;8.05;;;3.63;;
67278;SDS011;54193;53.746;10.058;2022-07-29T04:02:26;9.45;;;3.60;;
67278;SDS011;54193;53.746;10.058;2022-07-29T04:05:12;7.95;;;3.83;;
67278;SDS011;54193;53.746;10.058;2022-07-29T04:07:59;9.23;;;3.90;;
67278;SDS011;54193;53.746;10.058;2022-07-29T04:10:44;7.80;;;3.45;;
67278;SDS011;54193;53.746;10.058;2022-07-29T04:13:30;7.97;;;3.45;;
67278;SDS011;54193;53.746;10.058;2022-07-29T04:16:17;7.35;;;3.50;;
67278;SDS011;54193;53.746;10.058;2022-07-29T04:19:03;8.27;;;3.60;;
67278;SDS011;54193;53.746;10.058;2022-07-29T04:21:48;7.63;;;3.50;;
67278;SDS011;54193;53.746;10.058;2022-07-29T04:24:34;8.18;;;3.60;;
67278;SDS011;54193;53.746;10.058;2022-07-29T04:27:19;6.82;;;3.38;;
67278;SDS011;54193;53.746;10.058;2022-07-29T04:30:05;6.70;;;3.30;;
67278;SDS011;54193;53.746;10.058;2022-07-29T04:32:51;6.80;;;3.15;;
67278;SDS011;54193;53.746;10.058;2022-07-29T04:35:37;8.80;;;3.73;;
67278;SDS011;54193;53.746;10.058;2022-07-29T04:38:23;9.00;;;3.60;;
67278;SDS011;54193;53.746;10.058;2022-07-29T04:41:10;8.75;;;3.85;;
67278;SDS011;54193;53.746;10.058;2022-07-29T04:43:55;9.27;;;3.88;;
67278;SDS011;54193;53.746;10.058;2022-07-29T04:46:41;8.38;;;3.58;;
67278;SDS011;54193;53.746;10.058;2022-07-29T04:49:27;10.63;;;3.93;;
67278;SDS011;54193;53.746;10.058;2022-07-29T04:52:12;6.82;;;3.22;;
67278;SDS011;54193;53.746;10.058;2022-07-29T04:54:58;8.77;;;3.35;;
67278;SDS011;54193;53.746;10.058;2022-07-29T04:57:44;9.48;;;4.00;;
67278;SDS011;54193;53.746;10.058;2022-07-29T05:00:29;8.68;;;3.20;;
67278;SDS011;54193;53.746;10.058;2022-07-29T05:03:15;8.10;;;3.30;;
67278;SDS011;54193;53.746;10.058;2022-07-29T05:06:01;8.85;;;3.53;;
67278;SDS011;54193;53.746;10.058;2022-07-29T05:08:46;6.38;;;3.28;;
67278;SDS011;54193;53.746;10.058;2022-07-29T05:11:32;8.63;;;3.47;;
67278;SDS011;54193;53.746;10.058;2022-07-29T05:14:18;9.82;;;3.80;;
67278;SDS011;54193;53.746;10.058;2022-07-29T05:17:03;9.53;;;3.30;;
67278;SDS011;54193;53.746;10.058;2022-07-29T05:19:49;8.40;;;3.40;;
67278;SDS011;54193;53.746;10.058;2022-07-29T05:22:36;7.38;;;3.85;;
67278;SDS011;54193;53.746;10.058;2022-07-29T05:25:22;7.60;;;3.30;;
67278;SDS011;54193;53.746;10.058;2022-07-29T05:28:09;7.88;;;3.60;;
67278;SDS011;54193;53.746;10.058;2022-07-29T05:30:54;8.97;;;3.47;;
67278;SDS011;54193;53.746;10.058;2022-07-29T05:33:41;7.93;;;3.35;;
67278;SDS011;54193;53.746;10.058;2022-07-29T05:36:27;6.07;;;3.50;;
67278;SDS011;54193;53.746;10.058;2022-07-29T05:39:13;7.88;;;3.45;;
67278;SDS011;54193;53.746;10.058;2022-07-29T05:41:59;10.90;;;3.88;;
67278;SDS011;54193;53.746;10.058;2022-07-29T05:44:45;6.40;;;3.60;;
67278;SDS011;54193;53.746;10.058;2022-07-29T05:47:30;9.65;;;4.10;;
67278;SDS011;54193;53.746;10.058;2022-07-29T05:50:17;10.45;;;3.38;;
67278;SDS011;54193;53.746;10.058;2022-07-29T05:53:03;6.85;;;3.45;;
67278;SDS011;54193;53.746;10.058;2022-07-29T05:55:49;11.80;;;3.75;;
67278;SDS011;54193;53.746;10.058;2022-07-29T05:58:35;9.57;;;3.50;;
67278;SDS011;54193;53.746;10.058;2022-07-29T06:01:21;7.65;;;3.30;;
67278;SDS011;54193;53.746;10.058;2022-07-29T06:04:07;8.75;;;3.50;;
67278;SDS011;54193;53.746;10.058;2022-07-29T06:06:53;9.35;;;4.05;;
67278;SDS011;54193;53.746;10.058;2022-07-29T06:09:38;6.45;;;3.13;;
67278;SDS011;54193;53.746;10.058;2022-07-29T06:12:24;7.50;;;3.70;;
67278;SDS011;54193;53.746;10.058;2022-07-29T06:15:10;7.53;;;3.65;;
67278;SDS011;54193;53.746;10.058;2022-07-29T06:17:55;7.07;;;3.30;;
67278;SDS011;54193;53.746;10.058;2022-07-29T06:20:41;6.53;;;2.95;;
67278;SDS011;54193;53.746;10.058;2022-07-29T06:23:27;7.53;;;3.40;;
67278;SDS011;54193;53.746;10.058;2022-07-29T06:26:13;7.43;;;3.30;;
67278;SDS011;54193;53.746;10.058;2022-07-29T06:28:58;7.40;;;3.08;;
67278;SDS011;54193;53.746;10.058;2022-07-29T06:31:44;8.45;;;3.28;;
67278;SDS011;54193;53.746;10.058;2022-07-29T06:34:30;7.45;;;3.30;;
67278;SDS011;54193;53.746;10.058;2022-07-29T06:37:15;8.82;;;3.20;;
67278;SDS011;54193;53.746;10.058;2022-07-29T06:40:03;7.37;;;3.10;;
67278;SDS011;54193;53.746;10.058;2022-07-29T06:43:09;6.57;;;3.30;;
67278;SDS011;54193;53.746;10.058;2022-07-29T06:45:56;7.60;;;3.15;;
67278;SDS011;54193;53.746;10.058;2022-07-29T06:48:41;6.82;;;3.22;;
67278;SDS011;54193;53.746;10.058;2022-07-29T06:51:28;6.43;;;3.22;;
67278;SDS011;54193;53.746;10.058;2022-07-29T06:54:14;8.83;;;3.23;;
67278;SDS011;54193;53.746;10.058;2022-07-29T06:57:00;7.93;;;3.30;;
67278;SDS011;54193;53.746;10.058;2022-07-29T06:59:46;6.57;;;3.05;;
67278;SDS011;54193;53.746;10.058;2022-07-29T07:02:31;8.65;;;3.65;;
67278;SDS011;54193;53.746;10.058;2022-07-29T07:05:17;5.82;;;3.28;;
67278;SDS011;54193;53.746;10.058;2022-07-29T07:08:03;8.03;;;3.07;;
67278;SDS011;54193;53.746;10.058;2022-07-29T07:10:49;7.45;;;3.08;;
67278;SDS011;54193;53.746;10.058;2022-07-29T07:13:36;6.53;;;3.03;;
67278;SDS011;54193;53.746;10.058;2022-07-29T07:16:22;9.73;;;2.97;;
67278;SDS011;54193;53.746;10.058;2022-07-29T07:19:07;7.00;;;3.05;;
67278;SDS011;54193;53.746;10.058;2022-07-29T07:21:53;8.53;;;3.37;;
67278;SDS011;54193;53.746;10.058;2022-07-29T07:24:39;6.18;;;2.97;;
67278;SDS011;54193;53.746;10.058;2022-07-29T07:27:25;5.72;;;3.00;;
67278;SDS011;54193;53.746;10.058;2022-07-29T07:30:13;5.95;;;2.80;;
67278;SDS011;54193;53.746;10.058;2022-07-29T07:33:00;5.67;;;2.70;;
67278;SDS011;54193;53.746;10.058;2022-07-29T07:35:46;5.90;;;2.85;;
67278;SDS011;54193;53.746;10.058;2022-07-29T07:38:32;5.65;;;2.50;;
67278;SDS011;54193;53.746;10.058;2022-07-29T07:41:19;6.15;;;2.70;;
67278;SDS011;54193;53.746;10.058;2022-07-29T07:44:05;7.55;;;3.13;;
67278;SDS011;54193;53.746;10.058;2022-07-29T07:46:51;5.27;;;2.90;;
67278;SDS011;54193;53.746;10.058;2022-07-29T07:49:37;6.18;;;2.70;;
67278;SDS011;54193;53.746;10.058;2022-07-29T07:52:24;5.07;;;2.80;;
67278;SDS011;54193;53.746;10.058;2022-07-29T07:55:11;6.55;;;3.00;;
67278;SDS011;54193;53.746;10.058;2022-07-29T07:57:56;5.55;;;2.72;;
67278;SDS011;54193;53.746;10.058;2022-07-29T08:00:42;4.77;;;2.80;;
67278;SDS011;54193;53.746;10.058;2022-07-29T08:03:28;4.63;;;2.60;;
67278;SDS011;54193;53.746;10.058;2022-07-29T08:06:14;6.07;;;2.90;;
67278;SDS011;54193;53.746;10.058;2022-07-29T08:08:59;5.07;;;2.90;;
67278;SDS011;54193;53.746;10.058;2022-07-29T08:11:45;5.75;;;2.80;;
67278;SDS011;54193;53.746;10.058;2022-07-29T08:14:31;8.53;;;2.80;;
67278;SDS011;54193;53.746;10.058;2022-07-29T08:17:17;6.38;;;2.95;;
67278;SDS011;54193;53.746;10.058;2022-07-29T08:20:02;4.95;;;2.60;;
67278;SDS011;54193;53.746;10.058;2022-07-29T08:22:49;6.35;;;2.85;;
67278;SDS011;54193;53.746;10.058;2022-07-29T08:25:35;6.63;;;2.90;;
67278;SDS011;54193;53.746;10.058;2022-07-29T08:28:23;7.73;;;3.10;;
67278;SDS011;54193;53.746;10.058;2022-07-29T08:31:09;8.00;;;3.10;;
67278;SDS011;54193;53.746;10.058;2022-07-29T08:33:55;5.40;;;2.80;;
67278;SDS011;54193;53.746;10.058;2022-07-29T08:36:41;5.90;;;2.75;;
67278;SDS011;54193;53.746;10.058;2022-07-29T08:39:27;6.20;;;2.95;;
67278;SDS011;54193;53.746;10.058;2022-07-29T08:42:13;5.50;;;3.00;;
67278;SDS011;54193;53.746;10.058;2022-07-29T08:44:59;5.70;;;2.80;;
67278;SDS011;54193;53.746;10.058;2022-07-29T08:47:45;4.88;;;2.90;;
67278;SDS011;54193;53.746;10.058;2022-07-29T08:50:30;4.90;;;2.78;;
67278;SDS011;54193;53.746;10.058;2022-07-29T08:53:17;6.00;;;2.65;;
67278;SDS011;54193;53.746;10.058;2022-07-29T08:56:03;5.70;;;2.88;;
67278;SDS011;54193;53.746;10.058;2022-07-29T08:58:49;7.60;;;2.80;;
67278;SDS011;54193;53.746;10.058;2022-07-29T09:01:37;5.47;;;2.65;;
67278;SDS011;54193;53.746;10.058;2022-07-29T09:04:25;5.43;;;2.80;;
67278;SDS011;54193;53.746;10.058;2022-07-29T09:07:15;5.88;;;3.20;;
67278;SDS011;54193;53.746;10.058;2022-07-29T09:10:03;6.75;;;3.05;;
67278;SDS011;54193;53.746;10.058;2022-07-29T09:12:49;5.80;;;2.80;;
67278;SDS011;54193;53.746;10.058;2022-07-29T09:15:35;6.90;;;2.92;;
67278;SDS011;54193;53.746;10.058;2022-07-29T09:18:40;6.03;;;2.70;;
67278;SDS011;54193;53.746;10.058;2022-07-29T09:21:27;7.50;;;2.90;;
67278;SDS011;54193;53.746;10.058;2022-07-29T09:24:44;5.03;;;2.60;;
67278;SDS011;54193;53.746;10.058;2022-07-29T09:27:32;7.00;;;3.30;;
67278;SDS011;54193;53.746;10.058;2022-07-29T09:30:18;5.93;;;2.90;;
67278;SDS011;54193;53.746;10.058;2022-07-29T09:33:04;5.45;;;2.90;;
67278;SDS011;54193;53.746;10.058;2022-07-29T09:36:04;6.10;;;3.00;;
67278;SDS011;54193;53.746;10.058;2022-07-29T09:38:58;6.40;;;3.10;;
67278;SDS011;54193;53.746;10.058;2022-07-29T09:41:52;7.03;;;2.97;;
67278;SDS011;54193;53.746;10.058;2022-07-29T09:44:43;5.63;;;2.80;;
67278;SDS011;54193;53.746;10.058;2022-07-29T09:47:40;5.60;;;2.58;;
67278;SDS011;54193;53.746;10.058;2022-07-29T09:50:36;5.97;;;2.90;;
67278;SDS011;54193;53.746;10.058;2022-07-29T09:56:19;4.87;;;2.60;;
67278;SDS011;54193;53.746;10.058;2022-07-29T09:59:05;5.82;;;2.60;;
67278;SDS011;54193;53.746;10.058;2022-07-29T10:01:52;6.78;;;2.90;;
67278;SDS011;54193;53.746;10.058;2022-07-29T10:04:41;4.85;;;2.28;;
67278;SDS011;54193;53.746;10.058;2022-07-29T10:07:42;5.68;;;2.28;;
67278;SDS011;54193;53.746;10.058;2022-07-29T10:10:47;5.30;;;2.47;;
67278;SDS011;54193;53.746;10.058;2022-07-29T10:13:33;5.55;;;2.30;;
67278;SDS011;54193;53.746;10.058;2022-07-29T10:16:18;5.55;;;2.72;;
67278;SDS011;54193;53.746;10.058;2022-07-29T10:19:04;5.63;;;2.25;;
67278;SDS011;54193;53.746;10.058;2022-07-29T10:21:50;5.53;;;2.42;;
67278;SDS011;54193;53.746;10.058;2022-07-29T10:24:36;5.30;;;2.63;;
67278;SDS011;54193;53.746;10.058;2022-07-29T10:27:23;5.72;;;2.40;;
67278;SDS011;54193;53.746;10.058;2022-07-29T10:30:09;4.35;;;2.30;;
67278;SDS011;54193;53.746;10.058;2022-07-29T10:39:45;5.73;;;2.40;;
67278;SDS011;54193;53.746;10.058;2022-07-29T10:42:45;4.68;;;2.28;;
67278;SDS011;54193;53.746;10.058;2022-07-29T10:45:31;5.68;;;2.17;;
67278;SDS011;54193;53.746;10.058;2022-07-29T10:48:18;5.07;;;2.40;;
67278;SDS011;54193;53.746;10.058;2022-07-29T10:51:04;6.40;;;2.30;;
67278;SDS011;54193;53.746;10.058;2022-07-29T10:53:51;5.13;;;2.28;;
67278;SDS011;54193;53.746;10.058;2022-07-29T10:56:38;5.68;;;2.40;;
67278;SDS011;54193;53.746;10.058;2022-07-29T10:59:25;5.38;;;2.50;;
67278;SDS011;54193;53.746;10.058;2022-07-29T11:05:22;5.47;;;2.33;;
67278;SDS011;54193;53.746;10.058;2022-07-29T11:20:44;6.27;;;2.60;;
67278;SDS011;54193;53.746;10.058;2022-07-29T11:23:34;4.90;;;2.22;;
67278;SDS011;54193;53.746;10.058;2022-07-29T11:26:24;3.60;;;2.20;;
67278;SDS011;54193;53.746;10.058;2022-07-29T11:29:16;5.20;;;2.50;;
67278;SDS011;54193;53.746;10.058;2022-07-29T11:32:10;7.22;;;2.67;;
67278;SDS011;54193;53.746;10.058;2022-07-29T11:35:13;4.67;;;2.47;;
67278;SDS011;54193;53.746;10.058;2022-07-29T11:44:05;5.43;;;2.67;;
67278;SDS011;54193;53.746;10.058;2022-07-29T11:46:51;5.90;;;2.90;;
67278;SDS011;54193;53.746;10.058;2022-07-29T11:49:37;6.13;;;3.00;;
67278;SDS011;54193;53.746;10.058;2022-07-29T11:52:33;5.07;;;3.03;;
67278;SDS011;54193;53.746;10.058;2022-07-29T11:55:20;5.13;;;2.67;;
67278;SDS011;54193;53.746;10.058;2022-07-29T11:58:10;5.13;;;2.80;;
67278;SDS011;54193;53.746;10.058;2022-07-29T12:00:56;6.75;;;2.97;;
67278;SDS011;54193;53.746;10.058;2022-07-29T12:03:42;5.57;;;2.93;;
67278;SDS011;54193;53.746;10.058;2022-07-29T12:06:28;5.75;;;2.90;;
67278;SDS011;54193;53.746;10.058;2022-07-29T12:09:13;6.90;;;3.00;;
67278;SDS011;54193;53.746;10.058;2022-07-29T12:11:59;6.75;;;2.85;;
67278;SDS011;54193;53.746;10.058;2022-07-29T12:14:45;4.82;;;2.90;;
67278;SDS011;54193;53.746;10.058;2022-07-29T12:17:34;6.33;;;2.97;;
67278;SDS011;54193;53.746;10.058;2022-07-29T12:20:26;6.55;;;3.00;;
67278;SDS011;54193;53.746;10.058;2022-07-29T12:23:15;6.72;;;3.10;;
67278;SDS011;54193;53.746;10.058;2022-07-29T12:26:05;6.15;;;2.97;;
67278;SDS011;54193;53.746;10.058;2022-07-29T12:28:51;5.32;;;2.70;;
67278;SDS011;54193;53.746;10.058;2022-07-29T12:31:37;6.30;;;2.77;;
67278;SDS011;54193;53.746;10.058;2022-07-29T12:34:23;5.85;;;2.50;;
67278;SDS011;54193;53.746;10.058;2022-07-29T12:37:20;7.25;;;2.70;;
67278;SDS011;54193;53.746;10.058;2022-07-29T12:40:07;5.05;;;2.63;;
67278;SDS011;54193;53.746;10.058;2022-07-29T12:46:10;7.30;;;2.80;;
67278;SDS011;54193;53.746;10.058;2022-07-29T12:48:57;4.70;;;3.10;;
67278;SDS011;54193;53.746;10.058;2022-07-29T12:51:43;5.40;;;3.00;;
67278;SDS011;54193;53.746;10.058;2022-07-29T12:54:29;4.82;;;2.90;;
67278;SDS011;54193;53.746;10.058;2022-07-29T12:57:15;5.22;;;2.95;;
67278;SDS011;54193;53.746;10.058;2022-07-29T13:00:08;7.40;;;2.80;;
67278;SDS011;54193;53.746;10.058;2022-07-29T13:02:56;6.38;;;2.55;;
67278;SDS011;54193;53.746;10.058;2022-07-29T13:05:43;6.38;;;2.88;;
67278;SDS011;54193;53.746;10.058;2022-07-29T13:08:30;5.97;;;2.60;;
67278;SDS011;54193;53.746;10.058;2022-07-29T13:14:35;8.93;;;2.80;;
67278;SDS011;54193;53.746;10.058;2022-07-29T13:17:22;7.28;;;3.08;;
67278;SDS011;54193;53.746;10.058;2022-07-29T13:20:09;5.75;;;2.90;;
67278;SDS011;54193;53.746;10.058;2022-07-29T13:22:58;5.03;;;2.75;;
67278;SDS011;54193;53.746;10.058;2022-07-29T13:25:45;5.40;;;2.70;;
67278;SDS011;54193;53.746;10.058;2022-07-29T13:28:31;5.67;;;2.80;;
67278;SDS011;54193;53.746;10.058;2022-07-29T13:31:18;5.68;;;2.70;;
67278;SDS011;54193;53.746;10.058;2022-07-29T13:34:03;6.72;;;2.80;;
67278;SDS011;54193;53.746;10.058;2022-07-29T13:36:49;9.32;;;3.17;;
67278;SDS011;54193;53.746;10.058;2022-07-29T13:39:35;6.63;;;2.88;;
67278;SDS011;54193;53.746;10.058;2022-07-29T13:42:21;8.37;;;3.10;;
67278;SDS011;54193;53.746;10.058;2022-07-29T13:45:08;6.28;;;2.88;;
67278;SDS011;54193;53.746;10.058;2022-07-29T13:47:55;7.50;;;3.03;;
67278;SDS011;54193;53.746;10.058;2022-07-29T13:50:41;7.28;;;3.20;;
67278;SDS011;54193;53.746;10.058;2022-07-29T13:53:27;7.60;;;3.08;;
67278;SDS011;54193;53.746;10.058;2022-07-29T13:56:13;7.03;;;3.03;;
67278;SDS011;54193;53.746;10.058;2022-07-29T13:58:59;5.95;;;3.15;;
67278;SDS011;54193;53.746;10.058;2022-07-29T14:01:46;7.10;;;3.25;;
67278;SDS011;54193;53.746;10.058;2022-07-29T14:04:34;6.53;;;3.30;;
67278;SDS011;54193;53.746;10.058;2022-07-29T14:07:21;4.15;;;2.45;;
67278;SDS011;54193;53.746;10.058;2022-07-29T14:10:07;4.57;;;2.70;;
67278;SDS011;54193;53.746;10.058;2022-07-29T14:12:54;7.47;;;3.00;;
67278;SDS011;54193;53.746;10.058;2022-07-29T14:15:39;7.20;;;2.85;;
67278;SDS011;54193;53.746;10.058;2022-07-29T14:18:25;5.25;;;2.35;;
67278;SDS011;54193;53.746;10.058;2022-07-29T14:21:11;5.70;;;2.80;;
67278;SDS011;54193;53.746;10.058;2022-07-29T14:23:58;5.57;;;2.70;;
67278;SDS011;54193;53.746;10.058;2022-07-29T14:26:44;5.80;;;2.92;;
67278;SDS011;54193;53.746;10.058;2022-07-29T14:29:29;5.45;;;2.95;;
67278;SDS011;54193;53.746;10.058;2022-07-29T14:32:15;5.82;;;2.70;;
67278;SDS011;54193;53.746;10.058;2022-07-29T14:35:01;6.18;;;2.70;;
67278;SDS011;54193;53.746;10.058;2022-07-29T14:37:46;6.33;;;2.90;;
67278;SDS011;54193;53.746;10.058;2022-07-29T14:40:32;6.43;;;2.60;;
67278;SDS011;54193;53.746;10.058;2022-07-29T14:43:18;6.80;;;2.78;;
67278;SDS011;54193;53.746;10.058;2022-07-29T14:46:03;6.32;;;2.70;;
67278;SDS011;54193;53.746;10.058;2022-07-29T14:48:49;7.35;;;2.75;;
67278;SDS011;54193;53.746;10.058;2022-07-29T14:51:35;6.67;;;3.10;;
67278;SDS011;54193;53.746;10.058;2022-07-29T14:54:20;5.25;;;2.60;;
67278;SDS011;54193;53.746;10.058;2022-07-29T14:57:06;6.55;;;2.90;;
67278;SDS011;54193;53.746;10.058;2022-07-29T14:59:52;6.57;;;2.72;;
67278;SDS011;54193;53.746;10.058;2022-07-29T15:02:37;8.23;;;2.80;;
67278;SDS011;54193;53.746;10.058;2022-07-29T15:05:23;7.10;;;2.87;;
67278;SDS011;54193;53.746;10.058;2022-07-29T15:08:15;5.65;;;2.50;;
67278;SDS011;54193;53.746;10.058;2022-07-29T15:11:01;5.72;;;2.70;;
67278;SDS011;54193;53.746;10.058;2022-07-29T15:13:47;4.87;;;2.40;;
67278;SDS011;54193;53.746;10.058;2022-07-29T15:16:34;6.80;;;2.90;;
67278;SDS011;54193;53.746;10.058;2022-07-29T15:19:20;5.07;;;3.10;;
67278;SDS011;54193;53.746;10.058;2022-07-29T15:22:06;5.25;;;2.60;;
67278;SDS011;54193;53.746;10.058;2022-07-29T15:24:52;7.05;;;2.80;;
67278;SDS011;54193;53.746;10.058;2022-07-29T15:27:38;5.23;;;2.60;;
67278;SDS011;54193;53.746;10.058;2022-07-29T15:30:23;6.47;;;2.60;;
67278;SDS011;54193;53.746;10.058;2022-07-29T15:33:09;5.25;;;2.63;;
67278;SDS011;54193;53.746;10.058;2022-07-29T15:35:56;4.22;;;2.53;;
67278;SDS011;54193;53.746;10.058;2022-07-29T15:38:43;4.40;;;2.60;;
67278;SDS011;54193;53.746;10.058;2022-07-29T15:41:30;4.90;;;2.40;;
67278;SDS011;54193;53.746;10.058;2022-07-29T15:44:15;5.10;;;2.40;;
67278;SDS011;54193;53.746;10.058;2022-07-29T15:47:01;6.65;;;2.60;;
67278;SDS011;54193;53.746;10.058;2022-07-29T15:49:53;5.53;;;2.80;;
67278;SDS011;54193;53.746;10.058;2022-07-29T15:52:39;8.43;;;2.80;;
67278;SDS011;54193;53.746;10.058;2022-07-29T15:55:25;5.77;;;2.80;;
67278;SDS011;54193;53.746;10.058;2022-07-29T15:58:11;6.35;;;2.50;;
67278;SDS011;54193;53.746;10.058;2022-07-29T16:00:56;8.25;;;2.70;;
67278;SDS011;54193;53.746;10.058;2022-07-29T16:03:43;4.90;;;2.67;;
67278;SDS011;54193;53.746;10.058;2022-07-29T16:06:28;4.97;;;2.80;;
67278;SDS011;54193;53.746;10.058;2022-07-29T16:09:14;6.97;;;2.50;;
67278;SDS011;54193;53.746;10.058;2022-07-29T16:12:01;5.30;;;2.58;;
67278;SDS011;54193;53.746;10.058;2022-07-29T16:14:48;5.65;;;2.95;;
67278;SDS011;54193;53.746;10.058;2022-07-29T16:17:37;9.15;;;2.80;;
67278;SDS011;54193;53.746;10.058;2022-07-29T16:20:23;7.72;;;2.97;;
67278;SDS011;54193;53.746;10.058;2022-07-29T16:23:09;7.43;;;2.80;;
67278;SDS011;54193;53.746;10.058;2022-07-29T16:25:56;4.43;;;2.45;;
67278;SDS011;54193;53.746;10.058;2022-07-29T16:28:42;7.13;;;2.75;;
67278;SDS011;54193;53.746;10.058;2022-07-29T16:31:28;5.57;;;2.72;;
67278;SDS011;54193;53.746;10.058;2022-07-29T16:34:15;8.05;;;3.00;;
67278;SDS011;54193;53.746;10.058;2022-07-29T16:37:01;4.87;;;2.90;;
67278;SDS011;54193;53.746;10.058;2022-07-29T16:39:46;5.45;;;2.70;;
67278;SDS011;54193;53.746;10.058;2022-07-29T16:42:32;5.95;;;2.90;;
67278;SDS011;54193;53.746;10.058;2022-07-29T16:45:18;6.45;;;2.80;;
67278;SDS011;54193;53.746;10.058;2022-07-29T16:48:04;6.75;;;2.92;;
67278;SDS011;54193;53.746;10.058;2022-07-29T16:50:51;6.47;;;2.90;;
67278;SDS011;54193;53.746;10.058;2022-07-29T16:53:37;5.88;;;3.00;;
67278;SDS011;54193;53.746;10.058;2022-07-29T16:56:22;4.95;;;3.00;;
67278;SDS011;54193;53.746;10.058;2022-07-29T16:59:09;6.38;;;2.75;;
67278;SDS011;54193;53.746;10.058;2022-07-29T17:01:54;6.03;;;2.72;;
67278;SDS011;54193;53.746;10.058;2022-07-29T17:04:40;7.10;;;2.40;;
67278;SDS011;54193;53.746;10.058;2022-07-29T17:07:26;6.80;;;2.80;;
67278;SDS011;54193;53.746;10.058;2022-07-29T17:10:11;6.75;;;2.80;;
67278;SDS011;54193;53.746;10.058;2022-07-29T17:12:57;6.05;;;3.13;;
67278;SDS011;54193;53.746;10.058;2022-07-29T17:15:44;5.45;;;2.90;;
67278;SDS011;54193;53.746;10.058;2022-07-29T17:18:29;7.30;;;3.00;;
67278;SDS011;54193;53.746;10.058;2022-07-29T17:21:15;6.47;;;2.80;;
67278;SDS011;54193;53.746;10.058;2022-07-29T17:24:01;7.03;;;2.92;;
67278;SDS011;54193;53.746;10.058;2022-07-29T17:26:47;6.53;;;3.13;;
67278;SDS011;54193;53.746;10.058;2022-07-29T17:29:32;4.70;;;2.90;;